Time;durP1;ratioP1;P1;durP2;ratioP2;P2;SDS_P1;SDS_P2;PMS_P1;PMS_P2;Temp;Humidity;BMP_temperature;BMP_pressure;BME280_temperature;BME280_humidity;BME280_pressure;Samples;Min_cycle;Max_cycle;Signal;HPM_P1;HPM_P2
2022/01/16 00:00:26;;;;;;;0.50;0.50;;;;;;;3.88;60.83;101986.25;681897;28;60729;-68
2022/01/16 00:00:54;;;;;;;0.40;0.40;;;;;;;3.87;60.71;101984.56;680522;28;93165;-68
2022/01/16 00:01:23;;;;;;;0.50;0.50;;;;;;;3.86;60.69;101977.50;679172;28;138392;-67
2022/01/16 00:02:11;;;;;;;0.65;0.65;;;;;;;3.85;61.09;101989.13;677447;28;160838;-68
2022/01/16 00:04:17;;;;;;;0.60;0.60;;;;;;;3.86;60.87;101990.00;677995;28;137520;-68
2022/01/16 00:04:38;;;;;;;0.50;0.50;;;;;;;3.86;60.96;101987.34;682674;28;22409;-68
2022/01/16 00:05:01;;;;;;;0.50;0.50;;;;;;;3.86;60.94;101980.16;683205;28;21535;-68
2022/01/16 00:05:23;;;;;;;0.50;0.50;;;;;;;3.86;61.16;101984.66;682147;28;44400;-68
2022/01/16 00:05:44;;;;;;;0.50;0.50;;;;;;;3.85;60.89;101974.94;681585;28;69321;-68
2022/01/16 00:06:05;;;;;;;0.60;0.60;;;;;;;3.84;61.01;101982.09;683201;28;23486;-66
2022/01/16 00:06:26;;;;;;;0.70;0.70;;;;;;;3.84;60.80;101979.44;683242;28;22441;-68
2022/01/16 00:06:48;;;;;;;0.60;0.60;;;;;;;3.84;61.05;101978.56;681474;28;24764;-68
2022/01/16 00:07:09;;;;;;;0.60;0.60;;;;;;;3.83;61.12;101983.03;681872;28;44398;-68
2022/01/16 00:07:30;;;;;;;0.50;0.50;;;;;;;3.83;61.14;101972.34;683190;28;22413;-68
2022/01/16 00:07:52;;;;;;;0.50;0.50;;;;;;;3.83;61.01;101977.69;683203;28;21278;-68
2022/01/16 00:08:14;;;;;;;0.50;0.50;;;;;;;3.84;61.11;101976.75;682735;28;23484;-67
2022/01/16 00:08:35;;;;;;;0.60;0.60;;;;;;;3.85;61.05;101978.44;682322;28;45287;-67
2022/01/16 00:08:56;;;;;;;0.60;0.60;;;;;;;3.85;61.05;101981.13;683142;28;22421;-68
2022/01/16 00:09:17;;;;;;;0.60;0.60;;;;;;;3.84;61.07;101983.91;684741;28;21279;-67
2022/01/16 00:09:39;;;;;;;0.50;0.50;;;;;;;3.83;60.92;101979.53;686010;28;21529;-68
2022/01/16 00:10:01;;;;;;;0.50;0.50;;;;;;;3.83;61.14;101979.53;685293;28;43805;-68
2022/01/16 00:10:24;;;;;;;0.50;0.50;;;;;;;3.83;60.96;101987.53;681353;28;69427;-68
2022/01/16 00:10:46;;;;;;;0.50;0.50;;;;;;;3.80;60.95;101983.25;680911;28;69444;-68
2022/01/16 00:11:08;;;;;;;0.68;0.68;;;;;;;3.79;61.14;101978.84;683865;28;21524;-68
2022/01/16 00:11:29;;;;;;;0.60;0.60;;;;;;;3.80;61.02;101988.59;685159;28;44414;-68
2022/01/16 00:11:50;;;;;;;0.50;0.50;;;;;;;3.81;60.99;101986.78;685145;28;23436;-66
2022/01/16 00:12:13;;;;;;;0.50;0.50;;;;;;;3.82;61.08;101984.00;684965;28;44405;-67
2022/01/16 00:12:35;;;;;;;0.40;0.40;;;;;;;3.81;61.12;101990.31;684713;28;46313;-68
2022/01/16 00:12:59;;;;;;;0.40;0.40;;;;;;;3.82;61.25;101992.00;684379;28;69407;-67
2022/01/16 00:13:23;;;;;;;0.50;0.50;;;;;;;3.84;61.04;101986.56;683478;28;69533;-67
2022/01/16 00:13:44;;;;;;;0.60;0.60;;;;;;;3.83;60.87;101983.03;683608;28;93226;-66
2022/01/16 00:14:06;;;;;;;0.50;0.50;;;;;;;3.82;60.86;101994.69;685960;28;22385;-67
2022/01/16 00:14:28;;;;;;;0.50;0.50;;;;;;;3.77;60.73;101981.63;684624;28;46432;-66
2022/01/16 00:14:50;;;;;;;0.50;0.50;;;;;;;3.81;60.85;101981.41;684545;28;44397;-67
2022/01/16 00:15:11;;;;;;;0.50;0.50;;;;;;;3.78;60.81;101979.84;685418;28;46224;-67
2022/01/16 00:15:32;;;;;;;0.40;0.40;;;;;;;3.78;60.68;101985.19;684959;28;44412;-66
2022/01/16 00:15:53;;;;;;;0.57;0.57;;;;;;;3.77;60.66;101988.81;685766;28;21577;-67
2022/01/16 00:16:16;;;;;;;0.60;0.60;;;;;;;3.76;61.04;101985.28;685737;28;22401;-67
2022/01/16 00:16:39;;;;;;;0.50;0.50;;;;;;;3.75;60.85;101991.56;685255;28;44330;-67
2022/01/16 00:17:00;;;;;;;0.50;0.50;;;;;;;3.76;61.02;101989.75;682726;28;89290;-66
2022/01/16 00:17:23;;;;;;;0.50;0.50;;;;;;;3.76;61.10;101981.72;685836;28;21051;-67
2022/01/16 00:17:53;;;;;;;0.50;0.50;;;;;;;3.74;60.98;101981.84;684065;28;70623;-67
2022/01/16 00:18:21;;;;;;;0.50;0.50;;;;;;;3.76;61.08;101976.38;681534;28;137751;-66
2022/01/16 00:18:49;;;;;;;0.70;0.70;;;;;;;3.81;61.42;101978.75;682102;28;137784;-66
2022/01/16 00:19:11;;;;;;;0.70;0.70;;;;;;;3.84;61.50;101971.41;681213;28;137929;-66
2022/01/16 00:19:32;;;;;;;0.55;0.55;;;;;;;3.86;61.52;101984.66;685189;28;44413;-67
2022/01/16 00:19:53;;;;;;;0.50;0.50;;;;;;;3.85;61.39;101978.44;685741;28;23727;-66
2022/01/16 00:20:15;;;;;;;0.50;0.50;;;;;;;3.85;61.27;101983.78;685119;28;22391;-67
2022/01/16 00:20:37;;;;;;;0.40;0.40;;;;;;;3.88;61.32;101980.06;684522;28;69436;-66
2022/01/16 00:20:58;;;;;;;0.60;0.60;;;;;;;3.89;61.48;101981.78;685084;28;45085;-66
2022/01/16 00:21:21;;;;;;;0.60;0.60;;;;;;;3.90;61.32;101980.81;685526;28;24321;-67
2022/01/16 00:21:44;;;;;;;0.60;0.60;;;;;;;3.90;61.55;101987.03;683100;28;68830;-67
2022/01/16 00:22:12;;;;;;;0.50;0.50;;;;;;;3.92;61.42;101987.78;684984;28;44171;-67
2022/01/16 00:22:38;;;;;;;0.50;0.50;;;;;;;3.91;61.09;101979.88;681878;28;138348;-66
2022/01/16 00:23:00;;;;;;;0.50;0.50;;;;;;;3.89;60.93;101985.31;681816;28;138231;-67
2022/01/16 00:23:24;;;;;;;0.52;0.52;;;;;;;3.88;60.85;101972.91;684954;28;46250;-67
2022/01/16 00:23:46;;;;;;;0.60;0.60;;;;;;;3.87;60.75;101978.34;683024;28;115106;-68
2022/01/16 00:24:09;;;;;;;0.60;0.60;;;;;;;3.85;60.97;101973.09;685902;28;21548;-67
2022/01/16 00:24:30;;;;;;;0.57;0.57;;;;;;;3.85;60.80;101969.59;684476;28;69453;-67
2022/01/16 00:24:51;;;;;;;0.50;0.50;;;;;;;3.85;60.71;101967.75;685888;28;22423;-66
2022/01/16 00:25:12;;;;;;;0.40;0.40;;;;;;;3.84;60.64;101967.84;684906;28;21551;-67
2022/01/16 00:25:34;;;;;;;0.40;0.40;;;;;;;3.83;60.58;101960.81;686004;28;21513;-67
2022/01/16 00:25:56;;;;;;;0.60;0.60;;;;;;;3.83;60.97;101963.50;685025;28;46488;-67
2022/01/16 00:26:18;;;;;;;0.63;0.63;;;;;;;3.81;60.73;101960.91;683926;28;69459;-66
2022/01/16 00:26:40;;;;;;;0.60;0.60;;;;;;;3.79;60.84;101953.00;685273;28;23493;-67
2022/01/16 00:27:03;;;;;;;0.60;0.60;;;;;;;3.81;60.94;101955.56;684119;28;69291;-67
2022/01/16 00:27:24;;;;;;;0.50;0.50;;;;;;;3.81;60.99;101957.38;684133;28;69595;-67
2022/01/16 00:27:46;;;;;;;0.50;0.50;;;;;;;3.81;60.85;101963.59;683232;28;21405;-68
2022/01/16 00:28:07;;;;;;;0.50;0.50;;;;;;;3.78;61.11;101956.63;683050;28;22150;-67
2022/01/16 00:28:29;;;;;;;0.60;0.60;;;;;;;3.78;60.86;101964.66;682558;28;22419;-67
2022/01/16 00:28:51;;;;;;;0.70;0.70;;;;;;;3.79;61.11;101958.34;682277;28;45073;-67
2022/01/16 00:29:12;;;;;;;0.60;0.60;;;;;;;3.78;61.16;101970.00;681448;28;44387;-68
2022/01/16 00:29:34;;;;;;;0.60;0.60;;;;;;;3.78;61.16;101972.66;683013;28;46358;-67
2022/01/16 00:29:56;;;;;;;0.55;0.55;;;;;;;3.77;61.23;101970.09;684972;28;44487;-69
2022/01/16 00:30:17;;;;;;;0.60;0.60;;;;;;;3.79;61.14;101966.38;685601;28;22428;-67
2022/01/16 00:30:39;;;;;;;0.50;0.50;;;;;;;3.82;61.48;101975.97;685140;28;44278;-67
2022/01/16 00:31:00;;;;;;;0.65;0.65;;;;;;;3.82;61.39;101970.63;685893;28;22434;-67
2022/01/16 00:31:23;;;;;;;0.70;0.70;;;;;;;3.85;61.22;101977.59;685530;28;22414;-67
2022/01/16 00:31:45;;;;;;;0.60;0.60;;;;;;;3.84;61.17;101970.53;683131;28;70707;-67
2022/01/16 00:32:07;;;;;;;0.60;0.60;;;;;;;3.83;61.18;101972.34;683746;28;69472;-66
2022/01/16 00:32:29;;;;;;;0.50;0.50;;;;;;;3.83;60.91;101975.03;685312;28;44269;-67
2022/01/16 00:32:50;;;;;;;0.50;0.50;;;;;;;3.83;60.61;101977.69;685032;28;46220;-67
2022/01/16 00:33:11;;;;;;;0.52;0.52;;;;;;;3.81;60.91;101970.72;687670;28;23464;-67
2022/01/16 00:33:32;;;;;;;0.70;0.70;;;;;;;3.78;60.90;101966.47;687506;28;23710;-67
2022/01/16 00:33:54;;;;;;;0.68;0.68;;;;;;;3.76;60.66;101969.25;688496;28;22460;-67
2022/01/16 00:34:15;;;;;;;0.60;0.60;;;;;;;3.77;60.65;101968.25;687127;28;47176;-67
2022/01/16 00:34:36;;;;;;;0.60;0.60;;;;;;;3.77;60.75;101967.41;687521;28;22407;-66
2022/01/16 00:34:57;;;;;;;0.60;0.60;;;;;;;3.78;60.88;101972.66;687996;28;22322;-67
2022/01/16 00:35:21;;;;;;;0.50;0.50;;;;;;;3.78;61.05;101975.34;684845;28;22441;-67
2022/01/16 00:35:42;;;;;;;0.50;0.50;;;;;;;3.77;61.02;101978.97;684991;28;69437;-67
2022/01/16 00:36:03;;;;;;;0.63;0.63;;;;;;;3.77;60.95;101984.31;685819;28;22394;-66
2022/01/16 00:36:24;;;;;;;0.60;0.60;;;;;;;3.76;61.11;101979.94;684921;28;46996;-66
2022/01/16 00:36:47;;;;;;;0.60;0.60;;;;;;;3.75;60.92;101986.22;685151;28;22401;-66
2022/01/16 00:37:08;;;;;;;0.60;0.60;;;;;;;3.76;61.19;101997.75;684152;28;69425;-66
2022/01/16 00:37:29;;;;;;;0.50;0.50;;;;;;;3.73;61.20;101996.16;686025;28;21529;-66
2022/01/16 00:37:52;;;;;;;0.50;0.50;;;;;;;3.75;60.87;102004.09;685618;28;22305;-66
2022/01/16 00:38:13;;;;;;;0.60;0.60;;;;;;;3.74;61.09;101994.34;685002;28;45278;-66
2022/01/16 00:38:35;;;;;;;0.80;0.80;;;;;;;3.73;61.19;102004.19;685554;28;21568;-67
2022/01/16 00:38:57;;;;;;;0.70;0.70;;;;;;;3.73;61.16;102000.63;681508;28;66009;-66
2022/01/16 00:39:18;;;;;;;0.80;0.80;;;;;;;3.74;61.27;102011.22;680836;28;44477;-67
2022/01/16 00:39:39;;;;;;;0.60;0.60;;;;;;;3.74;61.21;102003.22;683138;28;24401;-67
2022/01/16 00:40:01;;;;;;;0.60;0.60;;;;;;;3.73;61.18;101993.50;683414;28;21717;-67
2022/01/16 00:40:23;;;;;;;0.60;0.60;;;;;;;3.73;61.16;102003.31;682171;28;46202;-67
2022/01/16 00:40:44;;;;;;;0.60;0.60;;;;;;;3.72;61.18;102002.47;682690;28;44417;-67
2022/01/16 00:41:05;;;;;;;0.80;0.80;;;;;;;3.73;61.20;101993.50;685790;28;22397;-67
2022/01/16 00:41:27;;;;;;;0.75;0.75;;;;;;;3.74;61.04;101997.00;686088;28;21567;-66
2022/01/16 00:41:48;;;;;;;0.70;0.70;;;;;;;3.72;61.08;101993.59;684318;28;45280;-67
2022/01/16 00:42:09;;;;;;;0.60;0.60;;;;;;;3.72;61.13;101991.78;685647;28;23319;-67
2022/01/16 00:42:31;;;;;;;0.70;0.70;;;;;;;3.71;61.05;101987.38;685893;28;22420;-67
2022/01/16 00:42:55;;;;;;;0.60;0.60;;;;;;;3.71;61.15;101995.41;685708;28;23478;-66
2022/01/16 00:43:16;;;;;;;0.70;0.70;;;;;;;3.74;61.25;101994.34;683225;28;92810;-67
2022/01/16 00:43:37;;;;;;;0.70;0.70;;;;;;;3.76;61.66;101987.94;685728;28;22389;-67
2022/01/16 00:43:59;;;;;;;0.65;0.65;;;;;;;3.79;61.45;101987.75;685950;28;22472;-67
2022/01/16 00:44:21;;;;;;;0.70;0.70;;;;;;;3.85;61.48;101991.81;685245;28;46433;-67
2022/01/16 00:44:42;;;;;;;0.70;0.70;;;;;;;3.83;61.35;101984.88;685669;28;46668;-66
2022/01/16 00:45:05;;;;;;;0.70;0.70;;;;;;;3.86;61.35;101984.66;686323;28;23435;-66
2022/01/16 00:45:28;;;;;;;0.70;0.70;;;;;;;3.84;61.04;101982.09;684532;28;67283;-66
2022/01/16 00:45:49;;;;;;;0.82;0.82;;;;;;;3.85;61.14;101983.78;684196;28;90796;-67
2022/01/16 00:46:11;;;;;;;0.80;0.80;;;;;;;3.87;61.10;101981.00;686084;28;22235;-67
2022/01/16 00:46:33;;;;;;;0.70;0.70;;;;;;;3.89;61.36;101982.63;682970;28;46553;-68
2022/01/16 00:46:54;;;;;;;0.60;0.60;;;;;;;3.91;61.41;101975.38;682970;28;21302;-68
2022/01/16 00:47:16;;;;;;;0.60;0.60;;;;;;;3.92;61.28;101974.41;683281;28;22413;-67
2022/01/16 00:47:38;;;;;;;0.50;0.50;;;;;;;3.94;61.24;101977.84;682671;28;47188;-67
2022/01/16 00:47:59;;;;;;;0.70;0.70;;;;;;;3.95;61.24;101974.22;682854;28;44432;-67
2022/01/16 00:48:20;;;;;;;0.90;0.90;;;;;;;3.97;61.39;101980.31;683501;28;23493;-67
2022/01/16 00:48:41;;;;;;;0.80;0.80;;;;;;;3.96;61.31;101970.56;686640;28;23492;-67
2022/01/16 00:49:04;;;;;;;0.88;0.88;;;;;;;3.99;61.34;101972.19;685970;28;21285;-67
2022/01/16 00:49:25;;;;;;;0.80;0.80;;;;;;;4.00;60.97;101970.34;683912;28;92323;-68
2022/01/16 00:49:46;;;;;;;0.70;0.70;;;;;;;3.99;61.01;101965.97;686219;28;21355;-68
2022/01/16 00:50:08;;;;;;;0.65;0.65;;;;;;;3.97;61.05;101955.38;686321;28;22416;-67
2022/01/16 00:50:33;;;;;;;0.70;0.70;;;;;;;3.98;61.08;101954.41;686037;28;45324;-68
2022/01/16 00:50:54;;;;;;;0.80;0.80;;;;;;;3.96;60.90;101949.16;684303;28;92164;-68
2022/01/16 00:51:15;;;;;;;0.80;0.80;;;;;;;3.96;60.94;101941.16;685779;28;23419;-67
2022/01/16 00:51:37;;;;;;;0.70;0.70;;;;;;;3.94;60.90;101935.06;685674;28;45271;-68
2022/01/16 00:51:58;;;;;;;0.70;0.70;;;;;;;3.93;60.96;101938.72;685467;28;66103;-68
2022/01/16 00:52:19;;;;;;;0.70;0.70;;;;;;;3.91;60.65;101929.94;686303;28;22207;-68
2022/01/16 00:52:40;;;;;;;0.60;0.60;;;;;;;3.89;60.64;101931.84;686836;28;22416;-68
2022/01/16 00:53:03;;;;;;;0.70;0.70;;;;;;;3.87;60.91;101928.44;686649;28;24373;-67
2022/01/16 00:53:24;;;;;;;0.70;0.70;;;;;;;3.88;60.98;101934.63;684787;28;45297;-67
2022/01/16 00:53:45;;;;;;;0.80;0.80;;;;;;;3.87;60.93;101936.47;685004;28;23483;-68
2022/01/16 00:54:06;;;;;;;0.80;0.80;;;;;;;3.87;60.84;101939.13;685397;28;46652;-68
2022/01/16 00:54:28;;;;;;;0.70;0.70;;;;;;;3.88;61.14;101937.31;686459;28;22421;-68
2022/01/16 00:54:49;;;;;;;0.70;0.70;;;;;;;3.91;61.39;101945.13;685339;28;46402;-67
2022/01/16 00:55:11;;;;;;;0.70;0.70;;;;;;;3.92;61.21;101945.00;686591;28;21520;-69
2022/01/16 00:55:32;;;;;;;0.70;0.70;;;;;;;3.91;61.07;101937.94;685996;28;22567;-67
2022/01/16 00:55:54;;;;;;;0.82;0.82;;;;;;;3.91;61.08;101945.13;685644;28;44442;-68
2022/01/16 00:56:15;;;;;;;0.90;0.90;;;;;;;3.90;60.94;101941.59;686248;28;15596;-67
2022/01/16 00:56:36;;;;;;;0.80;0.80;;;;;;;3.86;60.97;101936.56;686385;28;22400;-68
2022/01/16 00:56:58;;;;;;;0.80;0.80;;;;;;;3.87;60.83;101944.47;684693;28;43402;-67
2022/01/16 00:57:19;;;;;;;0.70;0.70;;;;;;;3.90;61.04;101936.25;682285;28;45848;-68
2022/01/16 00:57:40;;;;;;;0.80;0.80;;;;;;;3.95;61.24;101944.81;684401;28;23527;-68
2022/01/16 00:58:02;;;;;;;0.80;0.80;;;;;;;3.97;61.35;101942.88;683957;28;23584;-68
2022/01/16 00:58:24;;;;;;;0.90;0.90;;;;;;;4.01;61.32;101946.19;684147;28;974;-68
2022/01/16 00:58:45;;;;;;;1.13;1.13;;;;;;;4.02;61.20;101939.88;682226;28;46296;-68
2022/01/16 00:59:06;;;;;;;27.67;26.38;;;;;;;4.04;61.03;101942.47;683566;28;23463;-67
2022/01/16 00:59:27;;;;;;;141.27;134.27;;;;;;;4.05;60.93;101954.88;686660;28;22199;-68
2022/01/16 00:59:49;;;;;;;185.77;176.55;;;;;;;4.06;60.96;101946.75;686083;28;23520;-67
2022/01/16 01:00:11;;;;;;;291.92;277.15;;;;;;;4.09;60.94;101946.53;685433;28;45276;-67
2022/01/16 01:00:32;;;;;;;170.73;161.98;;;;;;;4.10;60.99;101942.03;685932;28;46352;-68
2022/01/16 01:00:53;;;;;;;22.77;21.75;;;;;;;4.07;60.51;101955.63;686624;28;22179;-67
2022/01/16 01:01:15;;;;;;;0.80;0.80;;;;;;;4.07;60.55;101939.56;687474;28;44271;-69
2022/01/16 01:01:36;;;;;;;1.00;1.00;;;;;;;4.12;60.72;101937.44;688764;28;44416;-69
2022/01/16 01:01:59;;;;;;;1.00;1.00;;;;;;;4.11;60.90;101938.41;687262;28;43141;-68
2022/01/16 01:02:20;;;;;;;0.90;0.90;;;;;;;4.11;60.56;101938.41;688464;28;44479;-67
2022/01/16 01:02:42;;;;;;;0.90;0.90;;;;;;;4.08;60.75;101934.13;686182;28;22413;-68
2022/01/16 01:03:04;;;;;;;0.80;0.80;;;;;;;4.10;60.60;101942.03;684892;28;44404;-68
2022/01/16 01:03:25;;;;;;;0.80;0.80;;;;;;;4.13;60.73;101942.66;682219;28;45262;-69
2022/01/16 01:03:47;;;;;;;0.80;0.80;;;;;;;4.16;60.73;101946.97;682489;28;47250;-67
2022/01/16 01:04:08;;;;;;;1.10;1.10;;;;;;;4.17;60.71;101955.84;683565;28;24736;-67
2022/01/16 01:04:29;;;;;;;1.30;1.30;;;;;;;4.19;60.84;101956.59;683744;28;45288;-68
2022/01/16 01:04:50;;;;;;;1.15;1.15;;;;;;;4.18;60.81;101952.22;685741;28;23750;-68
2022/01/16 01:05:12;;;;;;;0.90;0.90;;;;;;;4.17;60.40;101953.16;685993;28;22508;-68
2022/01/16 01:05:35;;;;;;;0.80;0.80;;;;;;;4.13;60.31;101956.03;685240;28;46315;-67
2022/01/16 01:05:56;;;;;;;0.60;0.60;;;;;;;4.12;60.31;101951.69;685359;28;44402;-67
2022/01/16 01:06:18;;;;;;;0.68;0.68;;;;;;;4.08;60.20;101947.50;686072;28;22560;-68
2022/01/16 01:06:39;;;;;;;0.93;0.93;;;;;;;4.06;60.21;101954.78;684618;28;44409;-68
2022/01/16 01:07:01;;;;;;;1.10;1.10;;;;;;;4.03;60.38;101954.09;686153;28;22417;-67
2022/01/16 01:07:22;;;;;;;1.10;1.10;;;;;;;4.00;60.34;101944.50;684889;28;45345;-67
2022/01/16 01:07:44;;;;;;;1.10;1.10;;;;;;;3.99;60.40;101949.94;685849;28;21529;-69
2022/01/16 01:08:05;;;;;;;1.10;1.10;;;;;;;3.95;60.41;101941.28;687058;28;1543;-68
2022/01/16 01:08:28;;;;;;;0.90;0.90;;;;;;;3.92;60.47;101941.50;686204;28;22356;-68
2022/01/16 01:08:50;;;;;;;0.85;0.85;;;;;;;3.89;60.39;101944.38;684440;28;69443;-68
2022/01/16 01:09:11;;;;;;;1.30;1.30;;;;;;;3.88;60.70;101950.66;684640;28;46298;-68
2022/01/16 01:09:32;;;;;;;1.15;1.15;;;;;;;3.86;60.62;101949.94;686633;28;21580;-68
2022/01/16 01:09:53;;;;;;;6.28;6.05;;;;;;;3.86;60.87;101948.09;687027;28;22351;-68
2022/01/16 01:10:14;;;;;;;13.93;13.30;;;;;;;3.88;61.12;101948.00;686317;28;24325;-67
2022/01/16 01:10:39;;;;;;;44.33;42.28;;;;;;;3.93;61.06;101956.56;685709;28;44397;-67
2022/01/16 01:11:05;;;;;;;158.57;150.82;;;;;;;3.92;61.13;101953.03;683256;28;113752;-67
2022/01/16 01:11:28;;;;;;;54.65;52.05;;;;;;;3.93;61.12;101952.09;683343;28;115417;-67
2022/01/16 01:11:51;;;;;;;103.15;98.15;;;;;;;3.92;60.86;101953.03;683232;28;89337;-68
2022/01/16 01:12:23;;;;;;;92.35;87.90;;;;;;;3.90;61.01;101949.63;685055;28;46322;-68
2022/01/16 01:12:53;;;;;;;0.57;0.57;;;;;;;3.88;60.87;101946.16;681190;28;160320;-67
2022/01/16 01:13:22;;;;;;;0.60;0.60;;;;;;;3.86;60.83;101939.22;681784;28;137906;-68
2022/01/16 01:13:57;;;;;;;0.70;0.70;;;;;;;3.88;61.05;101948.84;682839;28;130377;-67
2022/01/16 01:14:25;;;;;;;0.50;0.50;;;;;;;3.93;61.16;101948.53;681915;28;135995;-67
2022/01/16 01:15:04;;;;;;;0.50;0.50;;;;;;;4.00;61.22;101946.28;682144;28;137716;-68
2022/01/16 01:15:30;;;;;;;0.40;0.40;;;;;;;4.04;61.22;101953.16;681461;28;160411;-68
2022/01/16 01:15:58;;;;;;;0.60;0.60;;;;;;;4.04;61.14;101951.31;683143;28;138009;-68
2022/01/16 01:16:19;;;;;;;0.60;0.60;;;;;;;4.04;61.16;101935.28;681960;28;137555;-67
2022/01/16 01:16:50;;;;;;;0.52;0.52;;;;;;;4.07;60.97;101931.56;685844;28;21589;-67
2022/01/16 01:17:20;;;;;;;0.50;0.50;;;;;;;4.10;61.15;101929.50;682140;28;137324;-67
2022/01/16 01:17:45;;;;;;;0.50;0.50;;;;;;;4.11;60.84;101927.72;681218;28;158887;-68
2022/01/16 01:18:06;;;;;;;0.50;0.50;;;;;;;4.08;60.71;101925.25;684089;28;92176;-67
2022/01/16 01:18:28;;;;;;;0.60;0.60;;;;;;;4.10;60.93;101926.00;686400;28;22399;-68
2022/01/16 01:18:50;;;;;;;0.60;0.60;;;;;;;4.12;60.67;101924.06;685107;28;44175;-68
2022/01/16 01:19:11;;;;;;;0.60;0.60;;;;;;;4.14;60.90;101919.50;685956;28;46352;-67
2022/01/16 01:19:34;;;;;;;0.50;0.50;;;;;;;4.16;60.78;101920.22;686456;28;22381;-68
2022/01/16 01:19:55;;;;;;;0.50;0.50;;;;;;;4.21;60.91;101919.91;684429;28;69724;-67
2022/01/16 01:20:18;;;;;;;0.50;0.50;;;;;;;4.22;60.85;101924.31;682807;28;23464;-67
2022/01/16 01:20:42;;;;;;;0.50;0.50;;;;;;;4.23;60.52;101920.66;682186;28;69630;-67
2022/01/16 01:21:13;;;;;;;0.60;0.60;;;;;;;4.27;60.59;101924.84;683494;28;114835;-68
2022/01/16 01:21:34;;;;;;;0.60;0.60;;;;;;;4.26;60.43;101926.66;680642;28;137518;-68
2022/01/16 01:21:56;;;;;;;0.50;0.50;;;;;;;4.27;60.53;101928.34;683699;28;24407;-68
2022/01/16 01:22:17;;;;;;;0.50;0.50;;;;;;;4.25;60.52;101929.44;685729;28;46361;-68
2022/01/16 01:22:38;;;;;;;0.40;0.40;;;;;;;4.26;60.26;101924.00;685983;28;45129;-68
2022/01/16 01:23:00;;;;;;;0.40;0.40;;;;;;;4.27;60.41;101924.84;685032;28;22507;-68
2022/01/16 01:23:21;;;;;;;0.50;0.50;;;;;;;4.29;60.35;101923.75;683579;28;23731;-68
2022/01/16 01:23:43;;;;;;;0.60;0.60;;;;;;;4.31;60.11;101921.84;686691;28;21503;-68
2022/01/16 01:24:04;;;;;;;0.50;0.50;;;;;;;4.32;60.15;101917.34;685763;28;46405;-68
2022/01/16 01:24:26;;;;;;;0.50;0.50;;;;;;;4.30;60.11;101917.44;684817;28;45256;-69
2022/01/16 01:24:48;;;;;;;0.50;0.50;;;;;;;4.32;60.13;101918.19;686519;28;23401;-68
2022/01/16 01:25:12;;;;;;;0.40;0.40;;;;;;;4.31;60.01;101928.97;682267;28;43694;-67
2022/01/16 01:25:33;;;;;;;0.40;0.40;;;;;;;4.28;60.08;101919.38;678493;28;92178;-67
2022/01/16 01:25:54;;;;;;;0.57;0.57;;;;;;;4.30;59.98;101919.28;683776;28;20735;-68
2022/01/16 01:26:16;;;;;;;0.60;0.60;;;;;;;4.30;59.94;101922.78;683069;28;22463;-68
2022/01/16 01:26:46;;;;;;;0.50;0.50;;;;;;;4.30;60.11;101908.56;681988;28;45235;-68
2022/01/16 01:27:17;;;;;;;0.50;0.50;;;;;;;4.30;60.17;101914.75;684400;28;137480;-68
2022/01/16 01:27:41;;;;;;;0.43;0.43;;;;;;;4.28;60.06;101908.69;686748;28;137305;-68
2022/01/16 01:28:03;;;;;;;0.40;0.40;;;;;;;4.27;59.88;101914.97;685729;28;90394;-67
2022/01/16 01:28:25;;;;;;;0.52;0.52;;;;;;;4.25;60.03;101916.06;687331;28;43699;-68
2022/01/16 01:28:46;;;;;;;0.60;0.60;;;;;;;4.26;60.17;101915.09;688191;28;22475;-68
2022/01/16 01:29:07;;;;;;;0.50;0.50;;;;;;;4.25;60.47;101918.75;686048;28;21529;-68
2022/01/16 01:29:30;;;;;;;0.50;0.50;;;;;;;4.26;60.46;101915.97;685324;28;22406;-68
2022/01/16 01:29:58;;;;;;;0.50;0.50;;;;;;;4.26;60.30;101924.00;684520;28;70225;-67
2022/01/16 01:30:23;;;;;;;0.40;0.40;;;;;;;4.26;60.40;101923.09;682202;28;138379;-68
2022/01/16 01:30:45;;;;;;;0.50;0.50;;;;;;;4.30;60.24;101924.63;682733;28;115880;-68
2022/01/16 01:31:07;;;;;;;0.60;0.60;;;;;;;4.27;60.20;101928.34;685894;28;44412;-68
2022/01/16 01:31:29;;;;;;;0.60;0.60;;;;;;;4.27;60.36;101924.84;686291;28;25705;-68
2022/01/16 01:31:52;;;;;;;0.50;0.50;;;;;;;4.24;60.04;101919.69;683655;28;67274;-68
2022/01/16 01:32:14;;;;;;;0.50;0.50;;;;;;;4.25;60.10;101932.13;684377;28;44388;-67
2022/01/16 01:32:36;;;;;;;0.40;0.40;;;;;;;4.22;60.25;101925.16;685376;28;43591;-68
2022/01/16 01:32:58;;;;;;;0.40;0.40;;;;;;;4.19;60.18;101928.03;684796;28;67400;-68
2022/01/16 01:33:21;;;;;;;0.50;0.50;;;;;;;4.18;60.04;101926.31;684671;28;46420;-68
2022/01/16 01:33:42;;;;;;;0.60;0.60;;;;;;;4.17;60.18;101918.41;684685;28;46127;-68
2022/01/16 01:34:03;;;;;;;0.52;0.52;;;;;;;4.15;60.25;101915.84;686579;28;22378;-68
2022/01/16 01:34:24;;;;;;;0.50;0.50;;;;;;;4.13;60.14;101918.59;685884;28;21313;-68
2022/01/16 01:34:46;;;;;;;0.50;0.50;;;;;;;4.11;60.34;101919.69;686147;28;22427;-69
2022/01/16 01:35:10;;;;;;;0.47;0.47;;;;;;;4.12;60.29;101924.94;686071;28;45208;-68
2022/01/16 01:35:38;;;;;;;0.50;0.50;;;;;;;4.09;60.35;101927.81;683576;28;92311;-67
2022/01/16 01:36:00;;;;;;;0.70;0.70;;;;;;;4.11;60.43;101931.25;685816;28;95898;-68
2022/01/16 01:36:21;;;;;;;0.60;0.60;;;;;;;4.14;60.70;101914.97;688608;28;21250;-68
2022/01/16 01:36:48;;;;;;;0.50;0.50;;;;;;;4.14;60.59;101920.34;687037;28;44558;-68
2022/01/16 01:37:09;;;;;;;0.50;0.50;;;;;;;4.15;60.61;101914.03;683455;28;138056;-68
2022/01/16 01:37:30;;;;;;;0.50;0.50;;;;;;;4.18;60.63;101914.78;688605;28;23762;-68
2022/01/16 01:37:52;;;;;;;0.50;0.50;;;;;;;4.19;60.47;101908.47;688467;28;22418;-68
2022/01/16 01:38:17;;;;;;;0.60;0.60;;;;;;;4.23;60.42;101909.94;681736;28;46447;-68
2022/01/16 01:38:38;;;;;;;0.60;0.60;;;;;;;4.27;60.54;101906.13;680232;28;115117;-68
2022/01/16 01:38:59;;;;;;;0.60;0.60;;;;;;;4.30;60.39;101909.41;684491;28;1449;-68
2022/01/16 01:39:23;;;;;;;0.50;0.50;;;;;;;4.38;60.31;101911.56;683370;28;22518;-67
2022/01/16 01:39:44;;;;;;;0.50;0.50;;;;;;;4.40;60.18;101908.78;680823;28;92062;-67
2022/01/16 01:40:08;;;;;;;0.40;0.40;;;;;;;4.43;60.07;101909.41;685278;28;23434;-68
2022/01/16 01:40:30;;;;;;;0.47;0.47;;;;;;;4.43;60.03;101913.91;679906;28;113461;-67
2022/01/16 01:40:52;;;;;;;0.60;0.60;;;;;;;4.42;59.85;101918.41;683478;28;22407;-68
2022/01/16 01:41:13;;;;;;;0.57;0.57;;;;;;;4.43;59.68;101917.44;681872;28;47260;-68
2022/01/16 01:41:35;;;;;;;0.50;0.50;;;;;;;4.44;59.70;101920.97;683380;28;21531;-69
2022/01/16 01:42:06;;;;;;;0.50;0.50;;;;;;;4.44;59.85;101919.16;681297;28;67517;-68
2022/01/16 01:42:32;;;;;;;0.50;0.50;;;;;;;4.43;59.68;101912.06;683969;28;129374;-68
2022/01/16 01:50:59;;;;;;;0.50;0.50;;;;;;;4.42;59.68;101909.50;685119;28;139018;-67
2022/01/16 01:51:04;;;;;;;0.70;0.70;;;;;;;4.00;60.10;101783.22;681964;28;135979;-67
2022/01/16 01:51:26;;;;;;;0.60;0.60;;;;;;;3.95;60.13;101787.09;681352;28;136048;-68
2022/01/16 01:51:47;;;;;;;0.60;0.60;;;;;;;3.93;60.44;101782.81;683966;28;42949;-68
2022/01/16 01:52:09;;;;;;;0.50;0.50;;;;;;;3.89;60.37;101794.69;685744;28;23395;-68
2022/01/16 01:52:31;;;;;;;0.50;0.50;;;;;;;3.87;60.58;101797.47;685321;28;45358;-67
2022/01/16 01:52:52;;;;;;;0.50;0.50;;;;;;;3.85;60.71;101794.03;685147;28;46344;-68
2022/01/16 01:53:14;;;;;;;0.68;0.68;;;;;;;3.83;60.72;101787.94;686044;28;22310;-68
2022/01/16 01:53:35;;;;;;;0.60;0.60;;;;;;;3.79;60.79;101787.31;685326;28;45241;-67
2022/01/16 01:53:57;;;;;;;0.60;0.60;;;;;;;3.81;60.91;101797.91;685443;28;44269;-68
2022/01/16 01:54:19;;;;;;;0.60;0.60;;;;;;;3.81;60.94;101791.69;685939;28;21473;-68
2022/01/16 01:54:40;;;;;;;0.50;0.50;;;;;;;3.83;61.00;101795.13;685511;28;47760;-68
2022/01/16 01:55:02;;;;;;;0.50;0.50;;;;;;;3.83;61.27;101789.78;686440;28;22415;-68
2022/01/16 01:55:24;;;;;;;0.50;0.50;;;;;;;3.84;61.35;101784.31;686499;28;892;-67
2022/01/16 01:55:46;;;;;;;0.60;0.60;;;;;;;3.85;61.34;101780.66;684932;28;40223;-68
2022/01/16 01:56:11;;;;;;;0.60;0.60;;;;;;;3.83;61.29;101777.25;687048;28;1843;-68
2022/01/16 01:56:32;;;;;;;0.60;0.60;;;;;;;3.86;61.14;101781.56;682853;28;115324;-67
2022/01/16 01:56:55;;;;;;;0.50;0.50;;;;;;;3.84;61.23;101778.09;685588;28;22427;-68